createdAt,value
2019-01-16T00:02:14.169Z,77.80
2019-01-16T00:04:44.250Z,78.00
2019-01-16T00:07:14.343Z,78.00
2019-01-16T00:09:44.413Z,78.20
2019-01-16T00:12:14.518Z,78.00
2019-01-16T00:14:50.491Z,78.20
2019-01-16T00:17:26.533Z,78.50
2019-01-16T00:20:08.349Z,78.60
2019-01-16T00:22:53.562Z,78.50
2019-01-16T00:25:26.204Z,78.30
2019-01-16T00:28:12.484Z,78.50
2019-01-16T00:30:54.366Z,79.20
2019-01-16T00:33:29.896Z,78.70
2019-01-16T00:36:18.313Z,78.90
2019-01-16T00:38:54.144Z,78.80
2019-01-16T00:41:29.669Z,78.80
2019-01-16T00:43:59.788Z,78.40
2019-01-16T00:46:41.833Z,78.60
2019-01-16T00:49:20.983Z,78.40
2019-01-16T00:52:06.198Z,77.80
2019-01-16T00:54:52.660Z,78.20
2019-01-16T00:57:39.066Z,78.30
2019-01-16T01:00:15.015Z,78.20
2019-01-16T01:02:51.384Z,78.70
2019-01-16T01:05:23.944Z,78.70
2019-01-16T01:08:05.991Z,78.90
2019-01-16T01:10:36.141Z,79.20
2019-01-16T01:13:07.239Z,79.10
2019-01-16T01:15:43.809Z,79.50
2019-01-16T01:18:14.093Z,79.80
2019-01-16T01:20:53.214Z,79.70
2019-01-16T01:23:31.814Z,79.60
2019-01-16T01:26:04.851Z,80.00
2019-01-16T01:28:50.404Z,80.00
2019-01-16T01:31:23.259Z,80.10
2019-01-16T01:34:02.263Z,80.10
2019-01-16T01:36:38.885Z,80.30
2019-01-16T01:39:10.350Z,80.60
2019-01-16T01:41:56.522Z,80.30
2019-01-16T01:44:32.054Z,80.70
2019-01-16T01:47:13.914Z,80.80
2019-01-16T01:49:52.738Z,80.80
2019-01-16T01:52:39.615Z,81.10
2019-01-16T01:55:09.891Z,81.00
2019-01-16T01:57:42.405Z,81.20
2019-01-16T02:00:15.961Z,81.60
2019-01-16T02:02:54.642Z,81.70
2019-01-16T02:05:27.598Z,81.70
2019-01-16T02:08:12.981Z,81.60
2019-01-16T02:10:43.075Z,81.60
2019-01-16T02:13:29.382Z,81.40
2019-01-16T02:16:15.417Z,81.60
2019-01-16T02:18:47.495Z,81.70
2019-01-16T02:21:17.892Z,81.70
2019-01-16T02:23:47.970Z,81.90
2019-01-16T02:26:18.052Z,81.70
2019-01-16T02:28:53.905Z,81.90
2019-01-16T02:31:32.883Z,81.70
2019-01-16T02:34:05.685Z,81.70
2019-01-16T02:36:38.273Z,81.70
2019-01-16T02:39:09.086Z,82.00
2019-01-16T02:41:41.994Z,82.10
2019-01-16T02:44:12.094Z,82.10
2019-01-16T02:46:42.186Z,82.20
2019-01-16T02:49:12.277Z,82.10
2019-01-16T02:51:45.398Z,82.00
2019-01-16T02:54:24.224Z,81.60
2019-01-16T02:56:56.806Z,81.60
2019-01-16T02:59:26.901Z,82.00
2019-01-16T03:02:03.123Z,82.10
2019-01-16T03:04:39.037Z,82.10
2019-01-16T03:07:24.176Z,82.40
2019-01-16T03:10:00.282Z,82.30
2019-01-16T03:12:48.694Z,82.30
2019-01-16T03:15:18.787Z,82.20
2019-01-16T03:18:04.195Z,82.00
2019-01-16T03:20:49.678Z,81.90
2019-01-16T03:23:37.736Z,82.10
2019-01-16T03:26:07.838Z,82.30
2019-01-16T03:28:53.108Z,82.50
2019-01-16T03:31:26.331Z,82.70
2019-01-16T03:34:02.850Z,82.70
2019-01-16T03:36:44.973Z,82.70
2019-01-16T03:39:15.030Z,82.80
2019-01-16T03:41:51.346Z,82.80
2019-01-16T03:44:21.461Z,82.90
2019-01-16T03:46:51.553Z,83.10
2019-01-16T03:49:33.828Z,83.10
2019-01-16T03:52:12.352Z,83.20
2019-01-16T03:54:42.448Z,83.40
2019-01-16T03:57:21.546Z,83.20
2019-01-16T04:00:09.418Z,83.20
2019-01-16T04:02:39.891Z,83.20
2019-01-16T04:05:21.887Z,83.40
2019-01-16T04:08:04.203Z,83.50
2019-01-16T04:10:34.307Z,83.50
2019-01-16T04:13:07.337Z,83.50
2019-01-16T04:15:37.457Z,83.60
2019-01-16T04:18:13.498Z,83.50
2019-01-16T04:20:49.325Z,83.50
2019-01-16T04:23:22.364Z,83.60
2019-01-16T04:25:52.468Z,83.80
2019-01-16T04:28:28.790Z,83.80
2019-01-16T04:31:15.197Z,84.00
2019-01-16T04:33:45.286Z,84.20
2019-01-16T04:36:31.854Z,84.50
2019-01-16T04:39:01.935Z,84.60
2019-01-16T04:41:50.244Z,84.50
2019-01-16T04:44:23.274Z,84.60
2019-01-16T04:46:56.083Z,84.80
2019-01-16T04:49:30.397Z,85.00
2019-01-16T04:52:00.668Z,84.90
2019-01-16T04:54:46.988Z,85.00
2019-01-16T04:57:23.069Z,85.10
2019-01-16T05:00:05.056Z,85.20
2019-01-16T05:02:38.138Z,85.20
2019-01-16T05:05:09.357Z,85.00
2019-01-16T05:07:39.445Z,85.50
2019-01-16T05:10:13.859Z,85.50
2019-01-16T05:12:46.873Z,85.60
2019-01-16T05:15:16.940Z,85.70
2019-01-16T05:17:59.129Z,85.80
2019-01-16T05:20:37.823Z,85.80
2019-01-16T05:23:24.334Z,86.20
2019-01-16T05:26:03.399Z,86.20
2019-01-16T05:28:33.478Z,86.40
2019-01-16T05:31:15.543Z,86.40
2019-01-16T05:34:00.741Z,86.40
2019-01-16T05:36:36.905Z,86.40
2019-01-16T05:39:23.805Z,86.60
2019-01-16T05:42:09.893Z,86.60
2019-01-16T05:44:56.140Z,86.70
2019-01-16T05:47:29.169Z,86.70
2019-01-16T05:50:02.203Z,86.90
2019-01-16T05:52:32.257Z,87.00
2019-01-16T05:55:11.628Z,86.90
2019-01-16T05:57:50.721Z,86.90
2019-01-16T06:00:23.853Z,86.90
2019-01-16T06:03:10.658Z,86.90
2019-01-16T06:05:56.832Z,87.00
2019-01-16T06:08:27.262Z,87.10
2019-01-16T06:10:57.319Z,87.20
2019-01-16T06:13:33.659Z,87.40
2019-01-16T06:16:16.032Z,87.70
2019-01-16T06:18:48.943Z,87.80
2019-01-16T06:21:21.665Z,87.90
2019-01-16T06:23:57.464Z,88.00
2019-01-16T06:26:36.537Z,88.10
2019-01-16T06:29:15.388Z,88.00
2019-01-16T06:32:00.998Z,88.40
2019-01-16T06:34:31.081Z,88.60
2019-01-16T06:37:13.334Z,88.40
2019-01-16T06:39:49.489Z,88.50
2019-01-16T06:42:22.773Z,88.30
2019-01-16T06:45:09.093Z,88.50
2019-01-16T06:47:41.908Z,88.40
2019-01-16T06:50:16.609Z,88.20
2019-01-16T06:52:46.993Z,88.20
2019-01-16T06:55:17.096Z,88.20
2019-01-16T06:57:47.558Z,88.20
2019-01-16T07:00:26.417Z,88.20
2019-01-16T07:03:02.180Z,88.10
2019-01-16T07:05:37.767Z,88.10
2019-01-16T07:08:07.849Z,88.00
2019-01-16T07:10:54.393Z,88.10
2019-01-16T07:13:27.436Z,88.20
2019-01-16T07:16:00.212Z,88.40
2019-01-16T07:18:42.866Z,88.50
2019-01-16T07:21:13.032Z,88.70
2019-01-16T07:23:54.928Z,88.80
2019-01-16T07:26:36.973Z,89.70
2019-01-16T07:29:07.405Z,90.00
2019-01-16T07:31:37.810Z,90.10
2019-01-16T07:34:19.717Z,89.60
2019-01-16T07:36:52.703Z,89.30
2019-01-16T07:39:37.565Z,89.30
2019-01-16T07:42:07.667Z,89.40
2019-01-16T07:44:37.729Z,90.10
2019-01-16T07:47:10.805Z,90.30
2019-01-16T07:49:57.144Z,90.50
2019-01-16T07:52:33.463Z,90.90
2019-01-16T07:55:09.318Z,90.90
2019-01-16T07:57:45.342Z,90.90
2019-01-16T08:00:16.081Z,90.70
2019-01-16T08:02:46.171Z,90.50
2019-01-16T08:05:22.077Z,90.40
2019-01-16T08:07:55.284Z,90.10
2019-01-16T08:10:31.315Z,90.10
2019-01-16T08:13:10.193Z,90.20
2019-01-16T08:15:40.294Z,90.20
2019-01-16T08:18:10.685Z,90.20
2019-01-16T08:20:53.006Z,90.10
2019-01-16T08:23:28.833Z,89.80
2019-01-16T08:26:10.993Z,89.20
2019-01-16T08:28:50.578Z,88.80
2019-01-16T08:31:26.488Z,88.50
2019-01-16T08:34:06.080Z,87.90
2019-01-16T08:36:41.977Z,86.90
2019-01-16T08:39:26.218Z,86.50
2019-01-16T08:42:01.973Z,85.20
2019-01-16T08:44:38.255Z,85.30
2019-01-16T08:47:14.476Z,84.90
2019-01-16T08:50:00.751Z,84.80
2019-01-16T08:52:47.642Z,84.50
2019-01-16T08:55:34.287Z,84.50
2019-01-16T08:58:04.735Z,84.50
2019-01-16T09:00:43.876Z,84.20
2019-01-16T09:03:19.962Z,84.20
2019-01-16T09:05:55.717Z,84.30
2019-01-16T09:08:25.820Z,84.00
2019-01-16T09:11:12.509Z,83.70
2019-01-16T09:13:59.072Z,82.70
2019-01-16T09:16:45.561Z,83.10
2019-01-16T09:19:24.929Z,83.00
2019-01-16T09:22:10.182Z,83.20
2019-01-16T09:24:43.007Z,83.00
2019-01-16T09:27:27.972Z,82.10
2019-01-16T09:30:13.202Z,81.10
2019-01-16T09:32:45.953Z,81.30
2019-01-16T09:35:18.989Z,80.50
2019-01-16T09:38:05.258Z,80.90
2019-01-16T09:40:37.995Z,80.90
2019-01-16T09:43:20.418Z,80.70
2019-01-16T09:45:53.414Z,80.70
2019-01-16T09:48:29.774Z,79.60
2019-01-16T09:51:02.548Z,78.80
2019-01-16T09:53:47.625Z,78.80
2019-01-16T09:56:18.798Z,77.60
2019-01-16T09:59:05.045Z,76.80
2019-01-16T10:01:53.426Z,75.80
2019-01-16T10:04:32.958Z,74.30
2019-01-16T10:07:05.515Z,77.80
2019-01-16T10:09:56.261Z,78.30
2019-01-16T10:12:26.649Z,77.10
2019-01-16T10:15:05.837Z,76.00
2019-01-16T10:17:52.018Z,75.90
2019-01-16T10:20:28.435Z,72.80
2019-01-16T10:23:01.513Z,74.10
2019-01-16T10:25:34.525Z,74.80
2019-01-16T10:28:13.472Z,75.50
2019-01-16T10:30:46.259Z,76.20
2019-01-16T10:33:26.057Z,76.70
2019-01-16T10:35:56.492Z,76.70
2019-01-16T10:38:29.717Z,76.50
2019-01-16T10:41:17.594Z,76.50
2019-01-16T10:43:47.680Z,76.50
2019-01-16T10:46:18.147Z,76.70
2019-01-16T10:48:54.119Z,75.90
2019-01-16T10:51:40.316Z,76.30
2019-01-16T10:54:10.407Z,77.00
2019-01-16T10:56:40.953Z,76.60
2019-01-16T10:59:29.411Z,75.50
2019-01-16T11:01:59.912Z,75.40
2019-01-16T11:04:46.265Z,75.10
2019-01-16T11:07:19.025Z,74.80
2019-01-16T11:09:54.567Z,75.60
2019-01-16T11:12:32.394Z,74.90
2019-01-16T11:15:18.670Z,75.30
2019-01-16T11:18:05.041Z,74.30
2019-01-16T11:20:37.639Z,75.00
2019-01-16T11:23:07.704Z,73.70
2019-01-16T11:25:56.202Z,72.90
2019-01-16T11:28:32.303Z,72.70
2019-01-16T11:31:18.726Z,73.40
2019-01-16T11:34:03.833Z,73.50
2019-01-16T11:36:36.904Z,72.30
2019-01-16T11:39:26.315Z,71.90
2019-01-16T11:42:16.762Z,72.60
2019-01-16T11:44:58.578Z,71.70
2019-01-16T11:47:28.676Z,72.00
2019-01-16T11:50:01.468Z,72.00
2019-01-16T11:52:31.569Z,72.00
2019-01-16T11:55:01.632Z,72.20
2019-01-16T11:57:37.463Z,71.50
2019-01-16T12:00:23.461Z,71.60
2019-01-16T12:02:53.543Z,72.30
2019-01-16T12:05:32.558Z,70.90
2019-01-16T12:08:02.848Z,70.90
2019-01-16T12:10:40.709Z,70.90
2019-01-16T12:13:13.481Z,70.50
2019-01-16T12:15:58.876Z,70.50
2019-01-16T12:18:47.237Z,70.50
2019-01-16T12:21:26.702Z,70.30
2019-01-16T12:23:59.862Z,70.90
2019-01-16T12:26:46.289Z,71.00
2019-01-16T12:29:28.389Z,70.80
2019-01-16T12:31:58.502Z,69.80
2019-01-16T12:34:44.756Z,68.50
2019-01-16T12:37:14.900Z,68.40
2019-01-16T12:40:03.009Z,68.90
2019-01-16T12:42:36.104Z,69.80
2019-01-16T12:45:08.600Z,68.70
2019-01-16T12:47:47.455Z,68.50
2019-01-16T12:50:20.785Z,69.10
2019-01-16T12:52:54.202Z,69.30
2019-01-16T12:55:23.118Z,68.30
2019-01-16T12:58:13.497Z,68.20
2019-01-16T13:00:51.622Z,68.30
2019-01-16T13:03:36.689Z,69.70
2019-01-16T13:06:11.137Z,71.00
2019-01-16T13:08:41.577Z,69.80
2019-01-16T13:11:17.464Z,69.80
2019-01-16T13:13:47.565Z,68.30
2019-01-16T13:16:26.582Z,68.20
2019-01-16T13:19:07.997Z,68.80
2019-01-16T13:21:40.050Z,67.60
2019-01-16T13:24:24.598Z,68.30
2019-01-16T13:26:55.018Z,68.70
2019-01-16T13:29:25.074Z,68.10
2019-01-16T13:32:12.765Z,69.60
2019-01-16T13:34:51.801Z,68.50
2019-01-16T13:37:38.121Z,69.20
2019-01-16T13:40:11.659Z,68.30
2019-01-16T13:42:42.117Z,67.40
2019-01-16T13:45:15.681Z,67.30
2019-01-16T13:47:51.961Z,66.70
2019-01-16T13:50:43.588Z,68.50
2019-01-16T13:53:26.557Z,68.50
2019-01-16T13:56:14.671Z,67.80
2019-01-16T13:58:44.762Z,68.60
2019-01-16T14:01:30.688Z,68.80
2019-01-16T14:04:19.807Z,68.80
2019-01-16T14:06:58.970Z,68.10
2019-01-16T14:09:29.131Z,68.60
2019-01-16T14:12:02.081Z,68.50
2019-01-16T14:14:48.396Z,68.00
2019-01-16T14:17:21.433Z,68.30
2019-01-16T14:20:00.216Z,68.20
2019-01-16T14:22:47.826Z,67.80
2019-01-16T14:25:23.913Z,67.80
2019-01-16T14:27:59.474Z,66.60
2019-01-16T14:30:45.816Z,67.90
2019-01-16T14:33:22.148Z,67.60
2019-01-16T14:35:54.914Z,67.30
2019-01-16T14:38:31.074Z,68.70
2019-01-16T14:41:01.208Z,67.00
2019-01-16T14:43:47.911Z,69.40
2019-01-16T14:46:27.230Z,69.80
2019-01-16T14:49:09.571Z,68.50
2019-01-16T14:51:41.246Z,68.80
2019-01-16T14:54:17.589Z,69.40
2019-01-16T14:56:52.094Z,69.50
2019-01-16T14:59:25.389Z,69.50
2019-01-16T15:02:04.748Z,69.20
2019-01-16T15:04:35.789Z,68.80
2019-01-16T15:07:25.643Z,68.80
2019-01-16T15:09:59.621Z,69.10
2019-01-16T15:12:38.520Z,69.90
2019-01-16T15:15:21.247Z,70.50
2019-01-16T15:17:54.554Z,71.00
2019-01-16T15:20:24.671Z,71.10
2019-01-16T15:22:55.007Z,70.60
2019-01-16T15:25:31.568Z,70.80
2019-01-16T15:28:01.644Z,71.40
2019-01-16T15:30:34.597Z,71.70
2019-01-16T15:33:10.396Z,72.40
2019-01-16T15:35:44.484Z,72.80
2019-01-16T15:38:17.210Z,73.60
2019-01-16T15:40:56.554Z,73.80
2019-01-16T15:43:29.353Z,74.10
2019-01-16T15:46:02.593Z,74.60
2019-01-16T15:48:49.170Z,75.50
2019-01-16T15:51:34.237Z,76.40
2019-01-16T15:54:23.965Z,76.60
2019-01-16T15:56:56.844Z,77.20
2019-01-16T15:59:30.264Z,77.60
2019-01-16T16:02:18.217Z,78.10
2019-01-16T16:04:51.633Z,78.30
2019-01-16T16:07:34.364Z,78.60
2019-01-16T16:10:07.325Z,78.90
2019-01-16T16:12:38.729Z,79.30
2019-01-16T16:15:20.108Z,79.50
2019-01-16T16:17:58.273Z,79.70
2019-01-16T16:20:28.337Z,80.30
2019-01-16T16:23:10.654Z,81.00
2019-01-16T16:25:43.773Z,81.10
2019-01-16T16:28:16.913Z,81.60
2019-01-16T16:30:53.253Z,82.30
2019-01-16T16:33:39.821Z,82.70
2019-01-16T16:36:15.410Z,82.50
2019-01-16T16:39:00.676Z,83.10
2019-01-16T16:41:47.626Z,83.60
2019-01-16T16:44:30.029Z,84.10
2019-01-16T16:47:00.197Z,85.20
2019-01-16T16:49:33.356Z,85.30
2019-01-16T16:52:09.293Z,85.40
2019-01-16T16:54:39.373Z,85.60
2019-01-16T16:57:10.579Z,86.00
2019-01-16T16:59:43.585Z,86.30
2019-01-16T17:02:24.702Z,86.40
2019-01-16T17:05:06.913Z,86.90
2019-01-16T17:07:39.958Z,87.10
2019-01-16T17:10:28.969Z,87.40
2019-01-16T17:13:13.695Z,87.70
2019-01-16T17:15:46.378Z,87.70
2019-01-16T17:18:18.914Z,88.10
2019-01-16T17:20:52.071Z,88.20
2019-01-16T17:23:37.160Z,88.50
2019-01-16T17:26:23.265Z,88.50
2019-01-16T17:28:53.650Z,88.70
2019-01-16T17:31:26.688Z,88.90
2019-01-16T17:33:56.776Z,89.10
2019-01-16T17:36:27.176Z,89.40
2019-01-16T17:38:59.954Z,89.50
2019-01-16T17:41:32.857Z,89.30
2019-01-16T17:44:14.825Z,89.40
2019-01-16T17:46:47.829Z,89.50
2019-01-16T17:49:34.046Z,89.60
2019-01-16T17:52:20.259Z,89.60
2019-01-16T17:55:06.724Z,89.80
2019-01-16T17:57:45.306Z,89.80
2019-01-16T18:00:31.781Z,90.20
2019-01-16T18:03:01.889Z,90.20
2019-01-16T18:05:32.008Z,90.50
2019-01-16T18:08:20.415Z,90.60
2019-01-16T18:10:53.199Z,90.90
2019-01-16T18:13:35.237Z,91.30
2019-01-16T18:16:18.617Z,91.60
2019-01-16T18:18:51.818Z,91.80
2019-01-16T18:21:27.654Z,91.90
2019-01-16T18:24:15.726Z,92.30
2019-01-16T18:26:57.646Z,92.50
2019-01-16T18:29:33.932Z,92.70
2019-01-16T18:32:22.361Z,92.60
2019-01-16T18:34:55.303Z,92.50
2019-01-16T18:37:41.633Z,92.50
2019-01-16T18:40:17.240Z,92.20
2019-01-16T18:43:03.561Z,92.00
2019-01-16T18:45:50.138Z,91.80
2019-01-16T18:48:29.242Z,91.80
2019-01-16T18:51:15.293Z,92.00
2019-01-16T18:53:45.680Z,92.00
2019-01-16T18:56:32.189Z,92.10
2019-01-16T18:59:11.283Z,92.30
2019-01-16T19:01:58.119Z,92.70
2019-01-16T19:04:33.900Z,92.90
2019-01-16T19:07:18.941Z,92.90
2019-01-16T19:10:07.394Z,93.10
2019-01-16T19:12:40.405Z,93.10
2019-01-16T19:15:13.442Z,93.10
2019-01-16T19:17:49.070Z,92.90
2019-01-16T19:20:22.375Z,92.90
2019-01-16T19:23:05.017Z,92.90
2019-01-16T19:25:37.833Z,93.20
2019-01-16T19:28:10.807Z,93.60
2019-01-16T19:30:59.224Z,93.30
2019-01-16T19:33:29.338Z,92.80
2019-01-16T19:36:14.391Z,92.60
2019-01-16T19:38:44.835Z,92.60
2019-01-16T19:41:17.330Z,92.70
2019-01-16T19:43:53.367Z,92.80
2019-01-16T19:46:38.401Z,93.00
2019-01-16T19:49:17.245Z,92.90
2019-01-16T19:51:47.354Z,92.90
2019-01-16T19:54:33.742Z,92.80
2019-01-16T19:57:04.196Z,92.90
2019-01-16T19:59:46.610Z,92.90
2019-01-16T20:02:25.748Z,93.00
2019-01-16T20:05:04.340Z,93.20
2019-01-16T20:07:34.461Z,93.30
2019-01-16T20:10:20.857Z,93.30
2019-01-16T20:13:09.194Z,93.30
2019-01-16T20:15:39.317Z,93.20
2019-01-16T20:18:09.388Z,93.60
2019-01-16T20:20:59.108Z,93.60
2019-01-16T20:23:31.877Z,93.70
2019-01-16T20:26:07.984Z,93.60
2019-01-16T20:28:49.993Z,93.60
2019-01-16T20:31:22.541Z,93.70
2019-01-16T20:34:06.845Z,93.70
2019-01-16T20:36:40.086Z,93.70
2019-01-16T20:39:28.019Z,93.70
2019-01-16T20:42:14.082Z,93.70
2019-01-16T20:44:58.563Z,93.50
2019-01-16T20:47:31.318Z,93.30
2019-01-16T20:50:17.586Z,93.20
2019-01-16T20:52:50.125Z,93.50
2019-01-16T20:55:20.206Z,93.40
2019-01-16T20:58:06.732Z,93.60
2019-01-16T21:00:48.465Z,93.60
2019-01-16T21:03:27.757Z,93.60
2019-01-16T21:06:06.685Z,93.60
2019-01-16T21:08:48.811Z,93.70
2019-01-16T21:11:31.105Z,93.70
2019-01-16T21:14:06.643Z,93.80
2019-01-16T21:16:48.954Z,94.20
2019-01-16T21:19:19.090Z,94.80
2019-01-16T21:22:07.796Z,95.20
2019-01-16T21:24:52.937Z,95.10
2019-01-16T21:27:25.609Z,95.10
2019-01-16T21:29:55.721Z,95.20
2019-01-16T21:32:31.245Z,95.30
2019-01-16T21:35:10.050Z,95.30
2019-01-16T21:37:56.580Z,95.30
2019-01-16T21:40:42.882Z,95.20
2019-01-16T21:43:19.213Z,95.20
2019-01-16T21:45:54.939Z,95.10
2019-01-16T21:48:25.048Z,95.10
2019-01-16T21:50:58.117Z,95.10
2019-01-16T21:53:30.451Z,95.10
2019-01-16T21:56:15.632Z,95.20
2019-01-16T21:58:45.744Z,95.30
2019-01-16T22:01:16.141Z,95.30
2019-01-16T22:03:58.744Z,95.40
2019-01-16T22:06:29.202Z,95.60
2019-01-16T22:09:15.153Z,95.70
2019-01-16T22:11:45.528Z,95.60
2019-01-16T22:14:31.096Z,95.60
2019-01-16T22:17:10.116Z,95.70
2019-01-16T22:19:46.076Z,95.70
2019-01-16T22:22:25.092Z,95.60
2019-01-16T22:25:00.914Z,95.60
2019-01-16T22:27:31.709Z,95.60
2019-01-16T22:30:10.701Z,95.60
2019-01-16T22:32:46.582Z,95.70
2019-01-16T22:35:22.380Z,95.80
2019-01-16T22:38:10.842Z,95.60
2019-01-16T22:40:41.364Z,95.60
2019-01-16T22:43:11.485Z,95.60
2019-01-16T22:45:41.589Z,95.50
2019-01-16T22:48:11.761Z,95.40
2019-01-16T22:50:41.841Z,95.40
2019-01-16T22:53:28.424Z,95.50
2019-01-16T22:56:01.218Z,95.60
2019-01-16T22:58:31.329Z,95.70
2019-01-16T23:01:04.929Z,95.60
2019-01-16T23:03:35.307Z,95.50
2019-01-16T23:06:22.105Z,95.80
2019-01-16T23:08:58.057Z,96.20
2019-01-16T23:11:28.115Z,95.10
2019-01-16T23:13:58.201Z,92.90
2019-01-16T23:16:37.097Z,90.80
2019-01-16T23:19:07.613Z,88.90
2019-01-16T23:21:37.758Z,87.30
2019-01-16T23:24:07.821Z,86.90
2019-01-16T23:26:44.230Z,85.90
2019-01-16T23:29:26.440Z,86.30
2019-01-16T23:32:05.789Z,85.60
2019-01-16T23:34:35.978Z,85.60
2019-01-16T23:37:22.474Z,85.20
2019-01-16T23:39:58.474Z,85.40
2019-01-16T23:42:31.606Z,85.50
2019-01-16T23:45:04.711Z,84.60
2019-01-16T23:47:53.083Z,84.30
2019-01-16T23:50:39.276Z,84.40
2019-01-16T23:53:15.153Z,84.50
2019-01-16T23:55:54.523Z,84.60
2019-01-16T23:58:24.606Z,84.80
